createdAt,value
2019-03-13T00:02:28.515Z,82.40
2019-03-13T00:04:57.183Z,82.30
2019-03-13T00:07:25.810Z,82.10
2019-03-13T00:09:54.412Z,82.00
2019-03-13T00:12:23.028Z,81.50
2019-03-13T00:14:51.612Z,81.60
2019-03-13T00:17:20.202Z,81.10
2019-03-13T00:19:48.796Z,81.40
2019-03-13T00:22:17.401Z,81.40
2019-03-13T00:24:45.979Z,82.10
2019-03-13T00:27:14.596Z,82.10
2019-03-13T00:29:43.553Z,81.80
2019-03-13T00:32:13.277Z,81.10
2019-03-13T00:34:41.938Z,81.80
2019-03-13T00:37:10.863Z,81.90
2019-03-13T00:39:39.455Z,82.30
2019-03-13T00:42:08.054Z,81.60
2019-03-13T00:44:36.640Z,81.60
2019-03-13T00:47:05.232Z,82.20
2019-03-13T00:49:33.889Z,81.70
2019-03-13T00:52:02.524Z,81.50
2019-03-13T00:54:32.698Z,81.50
2019-03-13T00:57:01.544Z,81.40
2019-03-13T00:59:30.123Z,81.40
2019-03-13T01:02:06.258Z,81.30
2019-03-13T01:04:39.021Z,80.80
2019-03-13T01:07:09.998Z,81.10
2019-03-13T01:09:38.657Z,80.80
2019-03-13T01:12:07.605Z,81.30
2019-03-13T01:14:36.299Z,80.80
2019-03-13T01:17:05.802Z,80.30
2019-03-13T01:19:34.422Z,80.30
2019-03-13T01:22:06.286Z,80.90
2019-03-13T01:24:34.945Z,80.70
2019-03-13T01:27:05.724Z,80.30
2019-03-13T01:29:34.332Z,80.30
2019-03-13T01:32:24.836Z,80.50
2019-03-13T01:35:07.181Z,80.30
2019-03-13T01:37:35.759Z,79.30
2019-03-13T01:40:05.417Z,79.40
2019-03-13T01:42:36.487Z,79.90
2019-03-13T01:45:05.710Z,80.00
2019-03-13T01:47:34.409Z,79.90
2019-03-13T01:50:05.789Z,79.80
2019-03-13T01:52:34.355Z,80.10
2019-03-13T01:55:05.938Z,80.10
2019-03-13T01:57:34.607Z,80.30
2019-03-13T02:00:03.242Z,80.10
2019-03-13T02:02:32.180Z,80.10
2019-03-13T02:05:00.778Z,79.30
2019-03-13T02:07:29.379Z,78.90
2019-03-13T02:09:57.975Z,78.80
2019-03-13T02:12:26.641Z,78.40
2019-03-13T02:14:55.232Z,78.80
2019-03-13T02:17:23.813Z,78.80
2019-03-13T02:19:52.425Z,79.00
2019-03-13T02:22:21.128Z,79.30
2019-03-13T02:24:49.723Z,78.60
2019-03-13T02:27:18.699Z,78.20
2019-03-13T02:29:47.368Z,78.70
2019-03-13T02:32:16.029Z,78.00
2019-03-13T02:34:44.650Z,78.30
2019-03-13T02:37:13.300Z,78.50
2019-03-13T02:39:41.890Z,78.50
2019-03-13T02:42:10.546Z,78.40
2019-03-13T02:44:39.153Z,78.60
2019-03-13T02:47:07.709Z,78.70
2019-03-13T02:49:36.276Z,78.10
2019-03-13T02:52:04.962Z,78.10
2019-03-13T02:54:35.983Z,79.00
2019-03-13T02:57:04.589Z,78.60
2019-03-13T02:59:33.181Z,78.40
2019-03-13T03:02:20.845Z,78.30
2019-03-13T03:04:49.512Z,78.60
2019-03-13T03:07:18.085Z,78.70
2019-03-13T03:09:46.722Z,78.70
2019-03-13T03:12:15.446Z,78.90
2019-03-13T03:15:02.796Z,78.90
2019-03-13T03:17:32.477Z,78.80
2019-03-13T03:20:01.083Z,78.30
2019-03-13T03:22:29.737Z,78.20
2019-03-13T03:24:58.314Z,78.10
2019-03-13T03:27:26.900Z,78.20
2019-03-13T03:29:55.501Z,78.20
2019-03-13T03:32:24.077Z,77.70
2019-03-13T03:34:52.676Z,77.20
2019-03-13T03:37:21.224Z,77.70
2019-03-13T03:39:49.815Z,77.70
2019-03-13T03:42:18.406Z,78.10
2019-03-13T03:44:47.000Z,77.90
2019-03-13T03:47:17.986Z,77.80
2019-03-13T03:49:46.689Z,77.40
2019-03-13T03:52:16.541Z,77.50
2019-03-13T03:54:45.122Z,76.90
2019-03-13T03:57:13.756Z,77.20
2019-03-13T03:59:42.365Z,77.30
2019-03-13T04:02:10.970Z,77.10
2019-03-13T04:04:39.549Z,76.20
2019-03-13T04:07:08.221Z,77.00
2019-03-13T04:09:36.834Z,76.20
2019-03-13T04:12:05.475Z,76.30
2019-03-13T04:14:34.061Z,76.60
2019-03-13T04:17:02.743Z,76.60
2019-03-13T04:19:31.353Z,76.60
2019-03-13T04:21:59.912Z,76.60
2019-03-13T04:24:28.491Z,76.40
2019-03-13T04:26:57.104Z,77.00
2019-03-13T04:29:25.663Z,77.30
2019-03-13T04:31:54.243Z,77.20
2019-03-13T04:34:22.811Z,77.50
2019-03-13T04:36:51.429Z,77.40
2019-03-13T04:39:20.093Z,77.60
2019-03-13T04:41:48.671Z,78.00
2019-03-13T04:44:20.348Z,77.60
2019-03-13T04:47:08.261Z,77.80
2019-03-13T04:49:36.856Z,77.60
2019-03-13T04:52:05.500Z,77.80
2019-03-13T04:54:34.112Z,78.10
2019-03-13T04:57:02.928Z,78.00
2019-03-13T04:59:31.569Z,78.10
2019-03-13T05:02:00.180Z,77.90
2019-03-13T05:04:28.769Z,77.90
2019-03-13T05:06:57.324Z,77.50
2019-03-13T05:09:41.597Z,77.90
2019-03-13T05:12:10.470Z,77.80
2019-03-13T05:14:39.078Z,77.20
2019-03-13T05:17:08.076Z,77.30
2019-03-13T05:19:36.742Z,77.50
2019-03-13T05:22:05.338Z,77.80
2019-03-13T05:24:33.975Z,78.20
2019-03-13T05:27:04.690Z,78.00
2019-03-13T05:29:36.091Z,77.60
2019-03-13T05:32:07.824Z,77.50
2019-03-13T05:34:36.544Z,77.60
2019-03-13T05:37:05.476Z,77.20
2019-03-13T05:39:34.083Z,77.50
2019-03-13T05:42:02.692Z,77.00
2019-03-13T05:44:31.393Z,76.70
2019-03-13T05:47:00.235Z,76.50
2019-03-13T05:49:28.850Z,76.30
2019-03-13T05:51:57.493Z,77.20
2019-03-13T05:54:26.088Z,76.90
2019-03-13T05:56:54.684Z,76.70
2019-03-13T05:59:23.267Z,77.30
2019-03-13T06:02:11.199Z,76.50
2019-03-13T06:04:39.764Z,76.30
2019-03-13T06:07:08.352Z,76.10
2019-03-13T06:09:37.304Z,76.10
2019-03-13T06:12:05.895Z,76.30
2019-03-13T06:14:36.746Z,76.10
2019-03-13T06:17:04.805Z,76.00
2019-03-13T06:19:53.196Z,75.90
2019-03-13T06:22:21.782Z,75.80
2019-03-13T06:24:50.731Z,75.40
2019-03-13T06:27:19.337Z,75.80
2019-03-13T06:29:47.952Z,75.90
2019-03-13T06:32:16.618Z,75.80
2019-03-13T06:34:45.203Z,76.00
2019-03-13T06:37:13.828Z,75.60
2019-03-13T06:39:42.521Z,75.50
2019-03-13T06:42:11.356Z,75.50
2019-03-13T06:44:39.992Z,75.80
2019-03-13T06:47:08.636Z,76.00
2019-03-13T06:49:37.272Z,75.80
2019-03-13T06:52:05.932Z,76.20
2019-03-13T06:54:34.616Z,76.40
2019-03-13T06:57:03.282Z,76.30
2019-03-13T06:59:49.760Z,77.60
2019-03-13T07:02:27.252Z,77.80
2019-03-13T07:05:20.642Z,78.80
2019-03-13T07:08:08.497Z,80.60
2019-03-13T07:10:59.000Z,82.50
2019-03-13T07:13:38.920Z,82.50
2019-03-13T07:16:17.113Z,82.20
2019-03-13T07:19:04.199Z,83.80
2019-03-13T07:21:54.676Z,83.80
2019-03-13T07:24:34.132Z,83.30
2019-03-13T07:27:12.269Z,83.50
2019-03-13T07:29:58.973Z,83.20
2019-03-13T07:32:45.629Z,83.30
2019-03-13T07:35:25.806Z,82.30
2019-03-13T07:38:16.911Z,82.30
2019-03-13T07:41:11.523Z,81.20
2019-03-13T07:44:05.332Z,81.30
2019-03-13T07:46:55.231Z,80.80
2019-03-13T07:49:49.132Z,79.50
2019-03-13T07:52:43.484Z,80.10
2019-03-13T07:55:18.014Z,79.90
2019-03-13T07:57:54.994Z,79.30
2019-03-13T08:00:45.616Z,79.40
2019-03-13T08:03:23.082Z,78.90
2019-03-13T08:06:13.578Z,79.50
2019-03-13T08:09:01.933Z,79.10
2019-03-13T08:11:55.485Z,79.40
2019-03-13T08:14:50.448Z,79.80
2019-03-13T08:17:34.904Z,79.70
2019-03-13T08:20:24.427Z,79.60
2019-03-13T08:23:05.024Z,79.40
2019-03-13T08:25:39.570Z,79.50
2019-03-13T08:28:33.907Z,78.90
2019-03-13T08:31:13.545Z,78.90
2019-03-13T08:34:00.567Z,78.70
2019-03-13T08:36:45.552Z,78.80
2019-03-13T08:39:31.920Z,78.60
2019-03-13T08:42:28.365Z,79.00
2019-03-13T08:45:09.216Z,78.20
2019-03-13T08:47:53.958Z,78.90
2019-03-13T08:50:41.935Z,78.60
2019-03-13T08:53:18.483Z,78.10
2019-03-13T08:56:08.994Z,78.90
2019-03-13T08:58:50.030Z,78.10
2019-03-13T09:01:36.502Z,78.60
2019-03-13T09:04:27.577Z,78.60
2019-03-13T09:07:13.238Z,78.80
2019-03-13T09:10:22.870Z,79.00
2019-03-13T09:13:01.293Z,79.40
2019-03-13T09:15:47.786Z,79.40
2019-03-13T09:19:01.132Z,79.60
2019-03-13T09:21:38.190Z,80.20
2019-03-13T09:24:50.768Z,80.30
2019-03-13T09:27:50.839Z,80.50
2019-03-13T09:30:38.482Z,82.10
2019-03-13T09:33:41.780Z,82.20
2019-03-13T09:36:32.825Z,82.80
2019-03-13T09:39:20.520Z,84.40
2019-03-13T09:42:05.907Z,84.40
2019-03-13T09:44:43.074Z,85.00
2019-03-13T09:47:39.133Z,85.10
2019-03-13T09:50:18.789Z,85.80
2019-03-13T09:53:08.252Z,86.20
2019-03-13T09:55:55.084Z,86.80
2019-03-13T09:58:45.811Z,85.90
2019-03-13T10:01:33.513Z,85.60
2019-03-13T10:04:07.899Z,85.30
2019-03-13T10:06:58.651Z,84.80
2019-03-13T10:09:43.152Z,84.40
2019-03-13T10:12:39.894Z,83.30
2019-03-13T10:15:14.197Z,82.70
2019-03-13T10:17:52.516Z,83.30
2019-03-13T10:20:38.830Z,83.90
2019-03-13T10:23:35.900Z,85.60
2019-03-13T10:26:20.715Z,84.70
2019-03-13T10:28:54.487Z,85.00
2019-03-13T10:31:41.105Z,85.70
2019-03-13T10:34:17.469Z,86.00
2019-03-13T10:36:55.079Z,86.00
2019-03-13T10:39:40.223Z,85.80
2019-03-13T10:42:18.877Z,85.50
2019-03-13T10:45:06.859Z,84.90
2019-03-13T10:47:42.141Z,84.80
2019-03-13T10:50:48.276Z,85.20
2019-03-13T10:53:28.972Z,84.70
2019-03-13T10:56:07.968Z,84.10
2019-03-13T10:59:09.912Z,83.30
2019-03-13T11:01:44.324Z,82.50
2019-03-13T11:04:20.092Z,82.90
2019-03-13T11:07:06.471Z,82.90
2019-03-13T11:09:47.451Z,82.00
2019-03-13T11:12:26.284Z,81.90
2019-03-13T11:15:29.173Z,82.10
2019-03-13T11:18:06.623Z,82.00
2019-03-13T11:20:56.016Z,82.60
2019-03-13T11:23:50.680Z,82.10
2019-03-13T11:26:28.644Z,82.50
2019-03-13T11:29:15.193Z,82.00
2019-03-13T11:32:21.357Z,81.80
2019-03-13T11:35:04.144Z,82.20
2019-03-13T11:37:54.688Z,81.00
2019-03-13T11:40:41.101Z,81.60
2019-03-13T11:43:20.481Z,81.10
2019-03-13T11:46:08.184Z,81.20
2019-03-13T11:48:55.854Z,80.40
2019-03-13T11:51:51.615Z,81.00
2019-03-13T11:54:32.040Z,82.60
2019-03-13T11:57:26.205Z,83.00
2019-03-13T12:00:11.757Z,82.70
2019-03-13T12:02:59.440Z,81.60
2019-03-13T12:05:41.869Z,81.40
2019-03-13T12:08:34.128Z,82.00
2019-03-13T12:11:19.484Z,82.40
2019-03-13T12:14:10.258Z,84.00
2019-03-13T12:16:58.091Z,83.40
2019-03-13T12:19:57.824Z,82.30
2019-03-13T12:22:36.096Z,82.40
2019-03-13T12:25:20.161Z,81.60
2019-03-13T12:28:10.780Z,81.80
2019-03-13T12:31:07.699Z,80.00
2019-03-13T12:33:55.443Z,80.50
2019-03-13T12:36:42.244Z,81.10
2019-03-13T12:39:19.783Z,81.00
2019-03-13T12:42:25.716Z,80.20
2019-03-13T12:45:21.845Z,79.80
2019-03-13T12:47:59.544Z,77.80
2019-03-13T12:50:40.133Z,80.10
2019-03-13T12:53:20.562Z,80.70
2019-03-13T12:56:26.519Z,83.60
2019-03-13T12:59:23.775Z,84.20
2019-03-13T13:02:02.453Z,85.90
2019-03-13T13:05:01.961Z,85.80
2019-03-13T13:07:49.679Z,84.90
2019-03-13T13:10:23.913Z,85.60
2019-03-13T13:13:01.927Z,84.90
2019-03-13T13:15:48.434Z,82.70
2019-03-13T13:18:39.513Z,82.70
2019-03-13T13:21:09.170Z,80.40
2019-03-13T13:23:37.857Z,81.50
2019-03-13T13:26:06.477Z,81.20
2019-03-13T13:28:35.427Z,81.40
2019-03-13T13:31:04.417Z,82.50
2019-03-13T13:33:33.069Z,82.90
2019-03-13T13:36:01.658Z,82.70
2019-03-13T13:38:30.600Z,82.70
2019-03-13T13:40:59.212Z,81.50
2019-03-13T13:43:27.810Z,81.40
2019-03-13T13:46:26.007Z,81.80
2019-03-13T13:48:54.685Z,81.80
2019-03-13T13:51:23.286Z,80.90
2019-03-13T13:53:51.895Z,81.20
2019-03-13T13:56:20.505Z,81.30
2019-03-13T13:58:49.105Z,81.00
2019-03-13T14:01:17.692Z,79.90
2019-03-13T14:03:46.309Z,78.60
2019-03-13T14:06:15.013Z,78.70
2019-03-13T14:08:44.023Z,79.00
2019-03-13T14:11:12.629Z,79.30
2019-03-13T14:13:41.224Z,79.50
2019-03-13T14:16:09.847Z,80.60
2019-03-13T14:18:38.481Z,81.60
2019-03-13T14:21:07.065Z,81.10
2019-03-13T14:23:35.712Z,81.60
2019-03-13T14:26:04.464Z,81.80
2019-03-13T14:28:33.142Z,81.40
2019-03-13T14:31:01.757Z,81.70
2019-03-13T14:33:30.383Z,81.20
2019-03-13T14:35:58.965Z,81.70
2019-03-13T14:38:27.565Z,81.40
2019-03-13T14:40:56.151Z,81.40
2019-03-13T14:43:24.756Z,81.10
2019-03-13T14:45:53.360Z,80.70
2019-03-13T14:48:22.051Z,80.50
2019-03-13T14:50:50.661Z,80.00
2019-03-13T14:53:19.251Z,80.50
2019-03-13T14:55:47.848Z,80.60
2019-03-13T14:58:16.640Z,80.10
2019-03-13T15:00:45.269Z,80.00
2019-03-13T15:03:13.872Z,80.00
2019-03-13T15:05:42.756Z,80.00
2019-03-13T15:08:11.376Z,79.60
2019-03-13T15:10:39.944Z,79.30
2019-03-13T15:13:08.509Z,79.40
2019-03-13T15:15:37.104Z,79.60
2019-03-13T15:18:05.774Z,79.10
2019-03-13T15:20:34.384Z,78.30
2019-03-13T15:23:07.498Z,78.30
2019-03-13T15:25:36.398Z,78.30
2019-03-13T15:28:05.003Z,78.30
2019-03-13T15:30:33.940Z,78.30
2019-03-13T15:33:02.625Z,79.00
2019-03-13T15:35:31.669Z,79.10
2019-03-13T15:38:00.290Z,81.00
2019-03-13T15:40:28.985Z,84.90
2019-03-13T15:42:57.928Z,89.00
2019-03-13T15:45:26.542Z,90.80
2019-03-13T15:47:55.129Z,91.00
2019-03-13T15:50:23.708Z,90.90
2019-03-13T15:52:52.321Z,90.30
2019-03-13T15:55:20.976Z,90.20
2019-03-13T15:57:49.590Z,87.80
2019-03-13T16:00:20.049Z,88.50
2019-03-13T16:02:48.812Z,86.70
2019-03-13T16:05:17.584Z,86.80
2019-03-13T16:07:46.460Z,86.70
2019-03-13T16:10:16.645Z,86.40
2019-03-13T16:12:45.241Z,86.40
2019-03-13T16:15:16.249Z,86.70
2019-03-13T16:17:44.903Z,86.80
2019-03-13T16:20:13.903Z,86.60
2019-03-13T16:22:43.759Z,86.70
2019-03-13T16:25:12.341Z,87.00
2019-03-13T16:27:40.970Z,87.00
2019-03-13T16:30:16.563Z,87.30
2019-03-13T16:32:45.341Z,87.20
2019-03-13T16:35:14.301Z,87.20
2019-03-13T16:37:43.374Z,86.60
2019-03-13T16:40:13.341Z,86.00
2019-03-13T16:42:41.957Z,85.80
2019-03-13T16:45:11.333Z,84.90
2019-03-13T16:47:39.984Z,84.20
2019-03-13T16:50:11.067Z,82.80
2019-03-13T16:52:39.996Z,82.80
2019-03-13T16:55:10.625Z,82.60
2019-03-13T16:57:39.227Z,82.40
2019-03-13T17:00:27.759Z,82.90
2019-03-13T17:02:57.759Z,83.60
2019-03-13T17:05:26.499Z,83.50
2019-03-13T17:07:55.434Z,84.20
2019-03-13T17:10:24.590Z,81.60
2019-03-13T17:12:53.297Z,82.20
2019-03-13T17:15:21.935Z,83.80
2019-03-13T17:17:50.574Z,85.20
2019-03-13T17:20:21.054Z,86.10
2019-03-13T17:22:49.888Z,86.70
2019-03-13T17:25:19.020Z,87.30
2019-03-13T17:27:47.836Z,86.80
2019-03-13T17:30:18.996Z,86.80
2019-03-13T17:32:47.715Z,87.00
2019-03-13T17:35:16.467Z,86.80
2019-03-13T17:37:45.109Z,86.80
2019-03-13T17:40:18.614Z,86.50
2019-03-13T17:42:47.288Z,85.90
2019-03-13T17:45:17.739Z,86.00
2019-03-13T17:47:46.319Z,85.80
2019-03-13T17:50:19.021Z,85.70
2019-03-13T17:52:47.648Z,85.00
2019-03-13T17:55:16.531Z,84.00
2019-03-13T17:57:45.252Z,83.60
2019-03-13T18:00:22.038Z,83.70
2019-03-13T18:02:50.652Z,83.60
2019-03-13T18:05:19.368Z,83.40
2019-03-13T18:07:47.976Z,84.10
2019-03-13T18:10:17.709Z,84.50
2019-03-13T18:12:46.337Z,85.20
2019-03-13T18:15:15.075Z,86.00
2019-03-13T18:17:43.702Z,85.90
2019-03-13T18:20:15.867Z,85.70
2019-03-13T18:22:44.452Z,84.00
2019-03-13T18:25:13.137Z,83.20
2019-03-13T18:27:41.720Z,81.80
2019-03-13T18:30:17.203Z,81.60
2019-03-13T18:32:45.808Z,80.80
2019-03-13T18:35:14.435Z,80.80
2019-03-13T18:37:43.026Z,80.90
2019-03-13T18:40:11.807Z,80.40
2019-03-13T18:42:40.476Z,80.20
2019-03-13T18:45:12.389Z,80.10
2019-03-13T18:47:40.980Z,79.90
2019-03-13T18:50:10.463Z,79.90
2019-03-13T18:52:39.038Z,79.60
2019-03-13T18:55:08.917Z,79.50
2019-03-13T18:57:37.565Z,79.50
2019-03-13T19:00:08.187Z,79.70
2019-03-13T19:02:36.843Z,80.10
2019-03-13T19:05:06.807Z,80.50
2019-03-13T19:07:35.749Z,81.00
2019-03-13T19:10:05.056Z,81.40
2019-03-13T19:12:33.759Z,81.60
2019-03-13T19:15:02.758Z,81.00
2019-03-13T19:17:31.321Z,81.20
2019-03-13T19:19:59.904Z,81.40
2019-03-13T19:22:28.524Z,80.00
2019-03-13T19:24:57.105Z,79.30
2019-03-13T19:27:26.009Z,78.50
2019-03-13T19:29:54.779Z,78.30
2019-03-13T19:32:23.367Z,80.20
2019-03-13T19:34:51.973Z,83.30
2019-03-13T19:37:20.548Z,80.00
2019-03-13T19:39:49.127Z,79.60
2019-03-13T19:42:17.718Z,81.50
2019-03-13T19:44:46.312Z,82.80
2019-03-13T19:47:15.060Z,83.40
2019-03-13T19:49:43.665Z,83.10
2019-03-13T19:52:12.827Z,83.70
2019-03-13T19:54:41.521Z,83.70
2019-03-13T19:57:10.107Z,84.50
2019-03-13T19:59:38.821Z,85.60
2019-03-13T20:02:07.533Z,86.30
2019-03-13T20:04:46.921Z,86.60
2019-03-13T20:07:06.571Z,87.10
2019-03-13T20:09:35.505Z,89.10
2019-03-13T20:12:05.081Z,90.20
2019-03-13T20:14:33.768Z,90.20
2019-03-13T20:17:02.493Z,90.20
2019-03-13T20:19:31.392Z,90.10
2019-03-13T20:22:00.380Z,89.60
2019-03-13T20:24:29.040Z,89.40
2019-03-13T20:26:57.787Z,89.40
2019-03-13T20:29:26.377Z,89.70
2019-03-13T20:31:54.985Z,89.60
2019-03-13T20:34:23.675Z,89.60
2019-03-13T20:36:52.277Z,89.70
2019-03-13T20:39:20.907Z,89.90
2019-03-13T20:41:49.616Z,90.30
2019-03-13T20:44:18.228Z,89.70
2019-03-13T20:46:46.837Z,89.20
2019-03-13T20:49:15.585Z,88.60
2019-03-13T20:51:44.331Z,88.00
2019-03-13T20:54:12.963Z,87.80
2019-03-13T20:56:41.561Z,87.00
2019-03-13T20:59:10.158Z,86.70
2019-03-13T21:01:41.938Z,86.70
2019-03-13T21:04:09.445Z,86.60
2019-03-13T21:06:38.044Z,86.40
2019-03-13T21:09:07.028Z,86.30
2019-03-13T21:11:35.795Z,86.20
2019-03-13T21:14:04.538Z,85.70
2019-03-13T21:16:33.291Z,85.60
2019-03-13T21:19:02.102Z,85.10
2019-03-13T21:21:30.724Z,85.10
2019-03-13T21:23:59.442Z,85.10
2019-03-13T21:26:28.102Z,85.00
2019-03-13T21:28:57.105Z,85.00
2019-03-13T21:31:25.829Z,85.00
2019-03-13T21:33:54.412Z,85.20
2019-03-13T21:36:23.044Z,85.40
2019-03-13T21:38:51.635Z,85.60
2019-03-13T21:41:20.267Z,85.40
2019-03-13T21:43:50.962Z,85.00
2019-03-13T21:46:19.164Z,84.70
2019-03-13T21:48:47.752Z,84.60
2019-03-13T21:51:16.525Z,84.20
2019-03-13T21:53:45.161Z,84.50
2019-03-13T21:56:13.770Z,84.50
2019-03-13T21:58:42.366Z,84.60
2019-03-13T22:01:19.702Z,84.10
2019-03-13T22:03:41.540Z,83.90
2019-03-13T22:06:10.155Z,83.80
2019-03-13T22:08:38.809Z,84.50
2019-03-13T22:11:07.408Z,83.70
2019-03-13T22:13:36.004Z,83.60
2019-03-13T22:16:04.976Z,83.50
2019-03-13T22:18:33.592Z,83.00
2019-03-13T22:21:03.836Z,83.00
2019-03-13T22:23:32.437Z,82.90
2019-03-13T22:26:01.065Z,82.80
2019-03-13T22:28:29.661Z,82.80
2019-03-13T22:30:58.229Z,82.80
2019-03-13T22:33:26.805Z,83.60
2019-03-13T22:35:55.410Z,83.70
2019-03-13T22:38:24.244Z,82.90
2019-03-13T22:40:52.849Z,82.70
2019-03-13T22:43:21.401Z,82.50
2019-03-13T22:45:49.976Z,83.10
2019-03-13T22:48:18.539Z,82.40
2019-03-13T22:50:47.127Z,82.20
2019-03-13T22:53:15.851Z,82.20
2019-03-13T22:55:44.451Z,82.50
2019-03-13T22:58:13.084Z,82.20
2019-03-13T23:01:02.744Z,81.90
2019-03-13T23:03:40.371Z,82.10
2019-03-13T23:06:07.760Z,82.50
2019-03-13T23:08:36.376Z,82.60
2019-03-13T23:11:05.280Z,83.00
2019-03-13T23:13:35.543Z,83.30
2019-03-13T23:16:04.271Z,83.20
2019-03-13T23:18:32.893Z,83.10
2019-03-13T23:21:02.786Z,82.80
2019-03-13T23:23:31.481Z,82.70
2019-03-13T23:26:00.091Z,82.80
2019-03-13T23:28:28.700Z,83.00
2019-03-13T23:30:57.398Z,82.90
2019-03-13T23:33:25.978Z,82.70
2019-03-13T23:35:54.561Z,82.40
2019-03-13T23:38:23.177Z,82.30
2019-03-13T23:40:51.776Z,82.40
2019-03-13T23:43:20.419Z,82.40
2019-03-13T23:45:49.323Z,82.50
2019-03-13T23:48:17.901Z,82.50
2019-03-13T23:50:46.517Z,82.50
2019-03-13T23:53:15.145Z,82.10
2019-03-13T23:55:43.709Z,81.60
2019-03-13T23:58:12.305Z,81.40
